createdAt,value
2022-08-19T00:02:04.225Z,21.70
2022-08-19T00:04:35.825Z,21.90
2022-08-19T00:07:05.019Z,21.80
2022-08-19T00:09:32.016Z,21.80
2022-08-19T00:11:59.664Z,21.80
2022-08-19T00:14:27.709Z,21.70
2022-08-19T00:16:55.733Z,21.70
2022-08-19T00:19:24.255Z,21.80
2022-08-19T00:21:52.560Z,21.70
2022-08-19T00:24:20.238Z,21.80
2022-08-19T00:26:48.116Z,21.70
2022-08-19T00:29:18.245Z,21.60
2022-08-19T00:31:46.643Z,21.60
2022-08-19T00:34:14.706Z,21.60
2022-08-19T00:36:43.163Z,21.60
2022-08-19T00:39:10.851Z,21.60
2022-08-19T00:41:38.306Z,21.60
2022-08-19T00:44:26.894Z,21.80
2022-08-19T00:46:58.250Z,21.60
2022-08-19T00:49:28.901Z,21.70
2022-08-19T00:52:05.333Z,21.60
2022-08-19T00:54:34.113Z,21.70
2022-08-19T00:57:05.582Z,21.60
2022-08-19T01:00:00.906Z,21.60
2022-08-19T01:02:20.959Z,21.50
2022-08-19T01:04:48.086Z,21.50
2022-08-19T01:07:19.523Z,21.60
2022-08-19T01:09:47.182Z,21.70
2022-08-19T01:12:14.508Z,21.60
2022-08-19T01:14:42.258Z,21.60
2022-08-19T01:17:11.038Z,21.60
2022-08-19T01:19:44.319Z,21.50
2022-08-19T01:22:27.720Z,21.50
2022-08-19T01:24:58.166Z,21.50
2022-08-19T01:27:26.690Z,21.50
2022-08-19T01:29:56.989Z,21.40
2022-08-19T01:32:33.551Z,21.40
2022-08-19T01:35:02.895Z,21.40
2022-08-19T01:37:31.405Z,21.50
2022-08-19T01:39:58.944Z,21.60
2022-08-19T01:42:30.522Z,21.50
2022-08-19T01:44:58.506Z,21.40
2022-08-19T01:47:25.527Z,21.30
2022-08-19T01:49:52.638Z,21.40
2022-08-19T01:52:20.551Z,21.40
2022-08-19T01:54:47.529Z,21.50
2022-08-19T01:57:15.447Z,21.40
2022-08-19T01:59:44.786Z,21.50
2022-08-19T02:02:11.960Z,21.40
2022-08-19T02:04:39.546Z,21.30
2022-08-19T02:07:09.114Z,21.40
2022-08-19T02:09:36.587Z,21.30
2022-08-19T02:12:04.870Z,21.40
2022-08-19T02:14:31.872Z,21.50
2022-08-19T02:16:58.853Z,21.50
2022-08-19T02:19:25.810Z,21.40
2022-08-19T02:21:53.322Z,21.50
2022-08-19T02:24:20.475Z,21.30
2022-08-19T02:26:47.419Z,21.40
2022-08-19T02:29:14.476Z,21.40
2022-08-19T02:31:41.728Z,21.50
2022-08-19T02:34:08.745Z,21.40
2022-08-19T02:36:35.743Z,21.60
2022-08-19T02:39:03.215Z,21.50
2022-08-19T02:41:33.361Z,21.60
2022-08-19T02:44:28.605Z,21.50
2022-08-19T02:46:51.802Z,21.60
2022-08-19T02:49:20.163Z,21.60
2022-08-19T02:51:47.707Z,21.60
2022-08-19T02:54:15.665Z,21.60
2022-08-19T02:56:44.460Z,21.60
2022-08-19T02:59:12.772Z,21.60
2022-08-19T03:01:42.049Z,21.50
2022-08-19T03:04:12.661Z,21.60
2022-08-19T03:06:42.308Z,21.60
2022-08-19T03:09:10.559Z,21.60
2022-08-19T03:11:38.588Z,21.50
2022-08-19T03:14:07.471Z,21.50
2022-08-19T03:16:47.242Z,21.40
2022-08-19T03:19:16.788Z,21.30
2022-08-19T03:21:47.664Z,21.40
2022-08-19T03:24:15.458Z,21.30
2022-08-19T03:26:45.473Z,21.30
2022-08-19T03:29:13.322Z,21.40
2022-08-19T03:31:51.026Z,21.40
2022-08-19T03:34:29.211Z,21.40
2022-08-19T03:36:58.745Z,21.40
2022-08-19T03:39:27.278Z,21.30
2022-08-19T03:42:32.135Z,21.40
2022-08-19T03:44:48.302Z,21.40
2022-08-19T03:47:18.010Z,21.50
2022-08-19T03:49:45.742Z,21.40
2022-08-19T03:52:12.993Z,21.40
2022-08-19T03:54:40.301Z,21.30
2022-08-19T03:57:07.715Z,21.40
2022-08-19T03:59:36.936Z,21.40
2022-08-19T04:02:10.026Z,21.40
2022-08-19T04:04:39.355Z,21.50
2022-08-19T04:07:06.612Z,21.40
2022-08-19T04:09:35.526Z,21.30
2022-08-19T04:12:02.614Z,21.30
2022-08-19T04:14:34.798Z,21.50
2022-08-19T04:17:05.617Z,21.50
2022-08-19T04:19:34.767Z,21.60
2022-08-19T04:22:01.954Z,21.60
2022-08-19T04:24:29.020Z,21.50
2022-08-19T04:26:56.880Z,21.50
2022-08-19T04:29:26.452Z,21.50
2022-08-19T04:31:55.703Z,21.50
2022-08-19T04:34:25.277Z,21.30
2022-08-19T04:36:54.515Z,21.50
2022-08-19T04:39:44.627Z,21.50
2022-08-19T04:42:31.258Z,21.40
2022-08-19T04:44:59.600Z,21.50
2022-08-19T04:47:47.101Z,21.50
2022-08-19T04:50:14.858Z,21.50
2022-08-19T04:52:45.219Z,21.50
2022-08-19T04:55:13.611Z,21.40
2022-08-19T04:57:41.284Z,21.40
2022-08-19T05:00:12.737Z,21.30
2022-08-19T05:02:40.037Z,21.30
2022-08-19T05:05:07.623Z,21.20
2022-08-19T05:07:35.127Z,21.30
2022-08-19T05:10:02.864Z,21.30
2022-08-19T05:12:30.012Z,21.30
2022-08-19T05:14:58.792Z,21.30
2022-08-19T05:17:29.013Z,21.30
2022-08-19T05:20:16.269Z,21.30
2022-08-19T05:22:46.158Z,21.20
2022-08-19T05:25:19.411Z,21.30
2022-08-19T05:27:46.685Z,21.30
2022-08-19T05:30:13.945Z,21.30
2022-08-19T05:32:41.601Z,21.40
2022-08-19T05:35:09.358Z,21.40
2022-08-19T05:37:36.377Z,21.30
2022-08-19T05:40:04.593Z,21.00
2022-08-19T05:42:31.708Z,21.10
2022-08-19T05:44:59.018Z,21.20
2022-08-19T05:47:26.287Z,21.20
2022-08-19T05:49:53.395Z,21.30
2022-08-19T05:52:25.968Z,21.30
2022-08-19T05:54:56.536Z,21.20
2022-08-19T05:57:25.004Z,21.30
2022-08-19T05:59:58.138Z,21.30
2022-08-19T06:02:27.591Z,21.10
2022-08-19T06:04:54.688Z,21.10
2022-08-19T06:07:21.836Z,21.10
2022-08-19T06:09:59.345Z,21.10
2022-08-19T06:12:35.505Z,21.20
2022-08-19T06:15:11.707Z,21.30
2022-08-19T06:17:38.760Z,21.30
2022-08-19T06:20:12.955Z,21.30
2022-08-19T06:22:45.519Z,21.50
2022-08-19T06:25:14.802Z,21.50
2022-08-19T06:28:11.357Z,21.40
2022-08-19T06:30:29.203Z,21.30
2022-08-19T06:32:56.162Z,21.50
2022-08-19T06:35:23.354Z,21.50
2022-08-19T06:37:50.515Z,21.60
2022-08-19T06:40:17.632Z,21.50
2022-08-19T06:42:54.701Z,21.50
2022-08-19T06:45:24.570Z,21.60
2022-08-19T06:47:56.929Z,21.60
2022-08-19T06:50:27.087Z,21.50
2022-08-19T06:52:55.347Z,21.50
2022-08-19T06:55:22.589Z,21.40
2022-08-19T06:57:52.019Z,21.50
2022-08-19T07:00:19.221Z,21.60
2022-08-19T07:02:52.139Z,21.70
2022-08-19T07:05:24.433Z,21.50
2022-08-19T07:07:51.718Z,21.50
2022-08-19T07:10:19.431Z,21.50
2022-08-19T07:12:47.627Z,21.40
2022-08-19T07:15:14.780Z,21.30
2022-08-19T07:17:42.203Z,21.10
2022-08-19T07:20:10.376Z,21.20
2022-08-19T07:22:41.294Z,21.00
2022-08-19T07:25:09.785Z,20.90
2022-08-19T07:27:38.108Z,21.20
2022-08-19T07:30:11.649Z,21.30
2022-08-19T07:32:40.011Z,21.40
2022-08-19T07:35:08.365Z,21.20
2022-08-19T07:37:36.582Z,21.20
2022-08-19T07:40:05.286Z,21.40
2022-08-19T07:42:32.461Z,21.20
2022-08-19T07:44:59.969Z,21.00
2022-08-19T07:47:47.655Z,21.00
2022-08-19T07:50:14.178Z,21.00
2022-08-19T07:52:41.697Z,20.90
2022-08-19T07:55:13.635Z,20.90
2022-08-19T07:57:58.675Z,20.90
2022-08-19T08:00:25.989Z,20.90
2022-08-19T08:02:55.593Z,20.80
2022-08-19T08:05:44.227Z,20.90
2022-08-19T08:08:31.316Z,21.00
2022-08-19T08:11:00.261Z,21.00
2022-08-19T08:13:28.094Z,21.00
2022-08-19T08:15:57.129Z,21.00
2022-08-19T08:18:27.633Z,21.10
2022-08-19T08:20:58.058Z,21.10
2022-08-19T08:23:29.698Z,21.20
2022-08-19T08:25:59.092Z,21.40
2022-08-19T08:28:29.630Z,21.50
2022-08-19T08:30:58.054Z,21.60
2022-08-19T08:33:34.413Z,21.50
2022-08-19T08:36:05.995Z,21.60
2022-08-19T08:38:39.131Z,21.50
2022-08-19T08:41:45.605Z,21.30
2022-08-19T08:44:21.996Z,21.30
2022-08-19T08:47:03.622Z,21.30
2022-08-19T08:49:40.740Z,21.20
2022-08-19T08:52:20.041Z,21.10
2022-08-19T08:54:55.392Z,21.30
2022-08-19T08:57:44.814Z,21.30
2022-08-19T09:00:17.946Z,21.60
2022-08-19T09:02:50.530Z,21.90
2022-08-19T09:05:22.277Z,22.30
2022-08-19T09:07:49.598Z,22.50
2022-08-19T09:10:44.201Z,22.60
2022-08-19T09:13:20.918Z,22.30
2022-08-19T09:16:21.592Z,23.00
2022-08-19T09:19:01.855Z,23.20
2022-08-19T09:21:33.205Z,23.20
2022-08-19T09:24:01.012Z,23.10
2022-08-19T09:26:47.509Z,22.60
2022-08-19T09:29:19.419Z,22.70
2022-08-19T09:31:51.037Z,22.80
2022-08-19T09:34:21.021Z,23.00
2022-08-19T09:36:53.416Z,22.90
2022-08-19T09:39:20.384Z,22.80
2022-08-19T09:41:49.136Z,22.80
2022-08-19T09:44:16.986Z,22.50
2022-08-19T09:46:48.032Z,22.50
2022-08-19T09:49:18.455Z,22.60
2022-08-19T09:51:51.149Z,22.90
2022-08-19T09:54:23.582Z,23.30
2022-08-19T09:56:53.529Z,23.50
2022-08-19T09:59:20.659Z,23.80
2022-08-19T10:01:47.820Z,24.10
2022-08-19T10:04:20.084Z,23.90
2022-08-19T10:06:53.516Z,23.50
2022-08-19T10:09:26.347Z,23.00
2022-08-19T10:12:03.919Z,22.90
2022-08-19T10:14:32.207Z,22.80
2022-08-19T10:17:01.284Z,23.50
2022-08-19T10:19:36.866Z,23.50
2022-08-19T10:22:06.337Z,23.90
2022-08-19T10:24:39.283Z,24.10
2022-08-19T10:27:08.869Z,24.10
2022-08-19T10:29:35.897Z,24.60
2022-08-19T10:32:09.709Z,25.10
2022-08-19T10:34:48.354Z,25.10
2022-08-19T10:37:23.743Z,24.70
2022-08-19T10:39:55.941Z,24.00
2022-08-19T10:42:22.928Z,23.90
2022-08-19T10:44:49.908Z,24.30
2022-08-19T10:47:25.869Z,24.90
2022-08-19T10:50:13.570Z,24.90
2022-08-19T10:52:49.307Z,25.40
2022-08-19T10:55:41.248Z,25.70
2022-08-19T10:58:14.094Z,25.60
2022-08-19T11:00:41.866Z,25.20
2022-08-19T11:03:09.588Z,24.90
2022-08-19T11:05:40.450Z,24.70
2022-08-19T11:08:22.537Z,24.60
2022-08-19T11:10:51.788Z,24.50
2022-08-19T11:13:18.867Z,24.80
2022-08-19T11:15:48.347Z,24.90
2022-08-19T11:18:18.510Z,24.50
2022-08-19T11:20:45.603Z,24.10
2022-08-19T11:23:12.739Z,23.80
2022-08-19T11:25:40.332Z,23.70
2022-08-19T11:28:07.263Z,23.80
2022-08-19T11:30:35.143Z,23.90
2022-08-19T11:33:02.091Z,23.60
2022-08-19T11:35:29.328Z,23.80
2022-08-19T11:37:58.926Z,24.00
2022-08-19T11:40:25.906Z,24.00
2022-08-19T11:42:58.633Z,24.20
2022-08-19T11:45:28.264Z,24.30
2022-08-19T11:47:56.239Z,24.40
2022-08-19T11:50:24.627Z,24.30
2022-08-19T11:52:55.605Z,24.30
2022-08-19T11:55:24.650Z,23.60
2022-08-19T11:57:51.778Z,23.20
2022-08-19T12:00:19.398Z,23.30
2022-08-19T12:02:47.075Z,23.60
2022-08-19T12:05:14.313Z,23.60
2022-08-19T12:07:42.462Z,23.50
2022-08-19T12:10:10.692Z,23.50
2022-08-19T12:12:43.621Z,23.40
2022-08-19T12:15:11.936Z,23.30
2022-08-19T12:17:39.290Z,23.20
2022-08-19T12:20:07.839Z,23.10
2022-08-19T12:22:35.993Z,23.10
2022-08-19T12:25:03.200Z,23.20
2022-08-19T12:27:40.170Z,23.30
2022-08-19T12:30:11.055Z,23.10
2022-08-19T12:32:38.270Z,23.40
2022-08-19T12:35:06.223Z,23.60
2022-08-19T12:37:33.392Z,23.20
2022-08-19T12:40:00.681Z,23.30
2022-08-19T12:42:28.074Z,23.30
2022-08-19T12:44:55.130Z,23.20
2022-08-19T12:47:22.243Z,23.20
2022-08-19T12:49:54.063Z,23.30
2022-08-19T12:52:24.114Z,23.10
2022-08-19T12:54:54.710Z,23.10
2022-08-19T12:57:31.480Z,23.10
2022-08-19T13:00:14.503Z,23.20
2022-08-19T13:02:47.512Z,23.30
2022-08-19T13:05:17.750Z,23.20
2022-08-19T13:07:44.961Z,23.50
2022-08-19T13:10:16.422Z,23.70
2022-08-19T13:12:45.363Z,23.40
2022-08-19T13:15:16.900Z,23.30
2022-08-19T13:17:45.434Z,23.50
2022-08-19T13:20:12.544Z,23.60
2022-08-19T13:22:40.128Z,23.40
2022-08-19T13:25:08.582Z,23.60
2022-08-19T13:27:36.771Z,23.30
2022-08-19T13:30:24.007Z,23.40
2022-08-19T13:33:09.808Z,23.40
2022-08-19T13:35:36.797Z,23.40
2022-08-19T13:38:05.880Z,23.40
2022-08-19T13:40:41.345Z,22.80
2022-08-19T13:43:17.669Z,22.90
2022-08-19T13:45:54.846Z,22.70
2022-08-19T13:48:22.562Z,22.40
2022-08-19T13:50:49.551Z,22.40
2022-08-19T13:53:17.561Z,22.50
2022-08-19T13:55:45.554Z,22.60
2022-08-19T13:58:13.578Z,22.50
2022-08-19T14:00:44.625Z,22.30
2022-08-19T14:03:12.374Z,22.40
2022-08-19T14:05:40.170Z,22.60
2022-08-19T14:08:07.586Z,22.80
2022-08-19T14:10:35.588Z,22.60
2022-08-19T14:13:04.298Z,22.60
2022-08-19T14:15:32.209Z,22.70
2022-08-19T14:17:59.383Z,22.80
2022-08-19T14:20:26.851Z,22.70
2022-08-19T14:22:55.729Z,22.40
2022-08-19T14:25:29.107Z,22.30
2022-08-19T14:27:56.685Z,22.40
2022-08-19T14:30:30.349Z,22.40
2022-08-19T14:33:02.256Z,22.40
2022-08-19T14:35:31.187Z,22.40
2022-08-19T14:37:59.250Z,22.30
2022-08-19T14:40:28.916Z,22.40
2022-08-19T14:43:00.275Z,22.50
2022-08-19T14:45:29.702Z,22.70
2022-08-19T14:47:56.972Z,22.60
2022-08-19T14:50:24.003Z,22.50
2022-08-19T14:52:52.782Z,22.50
2022-08-19T14:55:19.869Z,22.40
2022-08-19T14:57:46.867Z,22.30
2022-08-19T15:00:14.988Z,22.60
2022-08-19T15:02:45.133Z,22.60
2022-08-19T15:05:13.686Z,22.70
2022-08-19T15:07:41.900Z,22.90
2022-08-19T15:10:11.691Z,22.80
2022-08-19T15:12:43.612Z,22.70
2022-08-19T15:15:16.252Z,22.90
2022-08-19T15:17:46.563Z,22.90
2022-08-19T15:20:20.719Z,22.90
2022-08-19T15:22:47.989Z,22.80
2022-08-19T15:25:17.920Z,22.80
2022-08-19T15:27:44.970Z,22.80
2022-08-19T15:30:12.908Z,22.70
2022-08-19T15:32:40.192Z,22.50
2022-08-19T15:35:08.490Z,22.50
2022-08-19T15:37:37.673Z,22.40
2022-08-19T15:40:09.611Z,22.50
2022-08-19T15:42:38.710Z,22.30
2022-08-19T15:45:07.082Z,22.40
2022-08-19T15:47:35.192Z,22.40
2022-08-19T15:50:21.428Z,22.40
2022-08-19T15:52:53.690Z,22.30
2022-08-19T15:55:31.347Z,22.40
2022-08-19T15:58:28.818Z,22.50
2022-08-19T16:01:21.356Z,22.60
2022-08-19T16:04:11.087Z,22.70
2022-08-19T16:06:55.002Z,22.80
2022-08-19T16:09:27.470Z,22.60
2022-08-19T16:12:05.155Z,22.70
2022-08-19T16:14:34.091Z,22.70
2022-08-19T16:17:01.940Z,22.60
2022-08-19T16:19:29.020Z,22.70
2022-08-19T16:21:57.225Z,22.70
2022-08-19T16:24:27.067Z,22.50
2022-08-19T16:26:55.032Z,22.40
2022-08-19T16:29:33.554Z,22.50
2022-08-19T16:32:07.006Z,22.40
2022-08-19T16:34:34.731Z,22.60
2022-08-19T16:37:02.021Z,22.40
2022-08-19T16:39:29.165Z,22.30
2022-08-19T16:41:56.174Z,22.20
2022-08-19T16:44:23.211Z,22.20
2022-08-19T16:46:58.414Z,22.30
2022-08-19T16:49:54.573Z,22.60
2022-08-19T16:52:16.170Z,22.60
2022-08-19T16:54:44.022Z,22.40
2022-08-19T16:57:13.040Z,22.50
2022-08-19T16:59:42.563Z,22.70
2022-08-19T17:02:17.988Z,22.70
2022-08-19T17:04:57.681Z,22.60
2022-08-19T17:07:32.150Z,22.50
2022-08-19T17:10:01.639Z,22.40
2022-08-19T17:12:30.468Z,22.30
2022-08-19T17:15:03.975Z,22.10
2022-08-19T17:17:31.804Z,22.10
2022-08-19T17:20:00.509Z,22.00
2022-08-19T17:22:27.916Z,22.00
2022-08-19T17:24:56.296Z,22.10
2022-08-19T17:27:32.501Z,22.20
2022-08-19T17:30:04.296Z,22.10
2022-08-19T17:32:35.011Z,22.00
2022-08-19T17:35:04.126Z,22.00
2022-08-19T17:37:31.163Z,22.00
2022-08-19T17:39:58.360Z,21.90
2022-08-19T17:42:25.448Z,21.90
2022-08-19T17:44:52.621Z,22.00
2022-08-19T17:47:21.174Z,22.00
2022-08-19T17:49:48.471Z,21.90
2022-08-19T17:52:15.566Z,21.90
2022-08-19T17:54:42.684Z,21.80
2022-08-19T17:57:10.046Z,21.80
2022-08-19T17:59:37.647Z,21.90
2022-08-19T18:02:14.678Z,21.90
2022-08-19T18:04:45.549Z,21.90
2022-08-19T18:07:18.430Z,21.90
2022-08-19T18:09:59.144Z,21.90
2022-08-19T18:12:29.187Z,22.00
2022-08-19T18:14:58.631Z,21.90
2022-08-19T18:17:33.053Z,21.90
2022-08-19T18:20:00.453Z,21.80
2022-08-19T18:22:31.556Z,21.70
2022-08-19T18:25:00.880Z,21.70
2022-08-19T18:27:29.169Z,21.60
2022-08-19T18:29:59.816Z,21.70
2022-08-19T18:32:34.933Z,21.70
2022-08-19T18:35:06.566Z,21.70
2022-08-19T18:37:33.623Z,21.70
2022-08-19T18:40:19.134Z,21.70
2022-08-19T18:43:05.160Z,21.60
2022-08-19T18:45:54.554Z,21.70
2022-08-19T18:48:41.205Z,21.70
2022-08-19T18:51:11.626Z,21.70
2022-08-19T18:53:41.234Z,21.60
2022-08-19T18:56:10.203Z,21.70
2022-08-19T18:58:38.326Z,21.50
2022-08-19T19:01:17.699Z,21.60
2022-08-19T19:03:50.661Z,21.50
2022-08-19T19:06:22.687Z,21.50
2022-08-19T19:08:51.576Z,21.60
2022-08-19T19:11:23.830Z,21.50
2022-08-19T19:13:51.039Z,21.60
2022-08-19T19:16:22.391Z,21.60
2022-08-19T19:18:52.624Z,21.60
2022-08-19T19:21:23.087Z,21.50
2022-08-19T19:23:50.715Z,21.50
2022-08-19T19:26:18.055Z,21.50
2022-08-19T19:28:46.519Z,21.60
2022-08-19T19:31:18.005Z,21.50
2022-08-19T19:33:45.774Z,21.50
2022-08-19T19:36:12.939Z,21.50
2022-08-19T19:38:48.040Z,21.40
2022-08-19T19:41:24.999Z,21.40
2022-08-19T19:44:23.209Z,21.30
2022-08-19T19:46:45.314Z,21.20
2022-08-19T19:49:13.611Z,21.30
2022-08-19T19:51:41.859Z,21.30
2022-08-19T19:54:13.904Z,21.30
2022-08-19T19:56:45.060Z,21.40
2022-08-19T19:59:12.186Z,21.30
2022-08-19T20:01:39.576Z,21.30
2022-08-19T20:04:12.176Z,21.30
2022-08-19T20:06:39.675Z,21.40
2022-08-19T20:09:10.840Z,21.40
2022-08-19T20:11:47.604Z,21.30
2022-08-19T20:14:20.462Z,21.20
2022-08-19T20:16:49.563Z,21.20
2022-08-19T20:19:20.823Z,21.10
2022-08-19T20:21:51.374Z,21.10
2022-08-19T20:24:22.482Z,21.00
2022-08-19T20:26:50.371Z,21.10
2022-08-19T20:29:40.079Z,21.10
2022-08-19T20:32:10.257Z,21.20
2022-08-19T20:34:37.798Z,21.30
2022-08-19T20:37:05.060Z,21.30
2022-08-19T20:39:32.229Z,21.30
2022-08-19T20:42:00.746Z,21.20
2022-08-19T20:44:27.944Z,21.20
2022-08-19T20:46:57.484Z,21.30
2022-08-19T20:49:26.998Z,21.20
2022-08-19T20:51:56.030Z,21.30
2022-08-19T20:54:24.134Z,21.30
2022-08-19T20:56:51.825Z,21.30
2022-08-19T20:59:20.151Z,21.20
2022-08-19T21:01:47.881Z,21.30
2022-08-19T21:04:15.023Z,21.20
2022-08-19T21:06:45.372Z,21.10
2022-08-19T21:09:13.775Z,21.10
2022-08-19T21:11:40.937Z,21.10
2022-08-19T21:14:08.418Z,21.00
2022-08-19T21:16:35.556Z,21.00
2022-08-19T21:19:02.697Z,21.00
2022-08-19T21:21:29.657Z,21.00
2022-08-19T21:23:56.961Z,21.00
2022-08-19T21:26:25.242Z,21.00
2022-08-19T21:28:52.204Z,21.10
2022-08-19T21:31:19.558Z,21.10
2022-08-19T21:33:46.562Z,21.10
2022-08-19T21:36:13.611Z,21.20
2022-08-19T21:38:41.354Z,21.20
2022-08-19T21:41:08.435Z,21.10
2022-08-19T21:43:36.850Z,21.20
2022-08-19T21:46:04.270Z,21.10
2022-08-19T21:48:31.255Z,21.10
2022-08-19T21:50:58.212Z,21.10
2022-08-19T21:53:25.267Z,21.10
2022-08-19T21:55:58.699Z,21.00
2022-08-19T21:58:28.097Z,21.00
2022-08-19T22:01:05.661Z,21.10
2022-08-19T22:03:37.489Z,21.10
2022-08-19T22:06:05.246Z,21.10
2022-08-19T22:08:32.513Z,21.10
2022-08-19T22:10:59.472Z,21.00
2022-08-19T22:13:26.990Z,20.90
2022-08-19T22:15:55.236Z,20.90
2022-08-19T22:18:22.249Z,20.90
2022-08-19T22:20:50.210Z,20.90
2022-08-19T22:23:17.214Z,21.00
2022-08-19T22:25:46.557Z,20.90
2022-08-19T22:28:18.845Z,21.10
2022-08-19T22:30:48.866Z,21.20
2022-08-19T22:33:19.503Z,21.00
2022-08-19T22:35:47.465Z,21.10
2022-08-19T22:38:16.130Z,21.00
2022-08-19T22:40:47.499Z,21.00
2022-08-19T22:43:26.703Z,20.90
2022-08-19T22:45:55.268Z,21.00
2022-08-19T22:48:25.076Z,20.90
2022-08-19T22:51:11.502Z,20.90
2022-08-19T22:53:40.596Z,20.90
2022-08-19T22:56:14.925Z,20.90
2022-08-19T22:58:42.517Z,20.90
2022-08-19T23:01:24.886Z,20.90
2022-08-19T23:03:56.548Z,21.10
2022-08-19T23:06:23.595Z,21.10
2022-08-19T23:09:00.050Z,21.00
2022-08-19T23:11:27.058Z,20.90
2022-08-19T23:13:54.087Z,20.90
2022-08-19T23:16:21.061Z,20.90
2022-08-19T23:18:48.246Z,21.00
2022-08-19T23:21:16.587Z,21.00
2022-08-19T23:23:43.758Z,20.90
2022-08-19T23:26:11.865Z,20.90
2022-08-19T23:28:57.982Z,20.90
2022-08-19T23:31:26.887Z,20.80
2022-08-19T23:33:53.882Z,20.80
2022-08-19T23:36:22.545Z,20.80
2022-08-19T23:38:52.265Z,20.80
2022-08-19T23:41:21.349Z,20.70
2022-08-19T23:43:48.428Z,20.80
2022-08-19T23:46:27.499Z,20.80
2022-08-19T23:48:56.326Z,20.80
2022-08-19T23:51:23.359Z,20.80
2022-08-19T23:53:50.409Z,20.90
2022-08-19T23:56:17.453Z,20.80
2022-08-19T23:58:44.463Z,20.80
